Time;durP1;ratioP1;P1;durP2;ratioP2;P2;SDS_P1;SDS_P2;PMS_P1;PMS_P2;Temp;Humidity;BMP_temperature;BMP_pressure;BME280_temperature;BME280_humidity;BME280_pressure;Samples;Min_cycle;Max_cycle;Signal;HPM_P1;HPM_P2
2020/12/13 00:00:05;;;;;;;;;;;;;;;3.52;100.00;97145.78;5091529;28;20028;-75
2020/12/13 00:02:31;;;;;;;14.50;8.48;;;;;;;3.50;100.00;97147.13;5108003;28;20368;-76
2020/12/13 00:04:56;;;;;;;20.00;9.80;;;;;;;3.44;100.00;97142.81;5112335;28;20024;-76
2020/12/13 00:07:24;;;;;;;15.48;8.35;;;;;;;3.46;100.00;97149.56;5112274;28;20055;-75
2020/12/13 00:09:49;;;;;;;16.35;7.32;;;;;;;3.41;100.00;97152.28;5112238;28;20084;-75
2020/12/13 00:12:15;;;;;;;21.02;8.38;;;;;;;3.47;100.00;97159.28;5110828;28;20485;-75
2020/12/13 00:14:40;;;;;;;19.95;9.13;;;;;;;3.41;100.00;97160.38;5110752;28;20038;-75
2020/12/13 00:17:06;;;;;;;20.42;9.43;;;;;;;3.44;100.00;97172.53;5112834;28;20449;-76
2020/12/13 00:19:31;;;;;;;19.67;9.02;;;;;;;3.47;100.00;97163.88;5111959;28;20484;-75
2020/12/13 00:21:57;;;;;;;16.98;8.98;;;;;;;3.39;100.00;97161.69;5110740;28;20032;-74
2020/12/13 00:24:22;;;;;;;;;;;;;;;3.38;100.00;97165.50;5111003;28;20023;-75
2020/12/13 00:26:48;;;;;;;19.17;8.80;;;;;;;3.39;100.00;97169.81;5111662;28;20400;-73
2020/12/13 00:29:15;;;;;;;13.35;7.88;;;;;;;3.31;100.00;97160.34;5110563;28;20031;-75
2020/12/13 00:31:40;;;;;;;18.02;8.90;;;;;;;3.38;100.00;97169.03;5111751;28;20056;-75
2020/12/13 00:34:06;;;;;;;17.38;8.68;;;;;;;3.31;100.00;97168.47;5112330;28;20024;-75
2020/12/13 00:36:32;;;;;;;;;;;;;;;3.45;100.00;97169.53;5112777;28;20404;-75
2020/12/13 00:38:57;;;;;;;15.88;8.18;;;;;;;3.43;100.00;97179.00;5112062;28;20041;-75
2020/12/13 00:41:23;;;;;;;19.02;9.65;;;;;;;3.40;100.00;97163.34;5111779;28;20118;-73
2020/12/13 00:43:48;;;;;;;17.70;9.50;;;;;;;3.44;99.44;97178.75;5111897;28;20047;-76
2020/12/13 00:46:13;;;;;;;16.20;9.13;;;;;;;3.51;99.19;97176.56;5112512;28;20023;-75
2020/12/13 00:48:39;;;;;;;;;;;;;;;3.46;99.02;97184.69;5111017;28;20516;-76
2020/12/13 00:51:04;;;;;;;20.13;8.90;;;;;;;3.49;98.51;97192.25;5111960;28;19915;-75
2020/12/13 00:53:30;;;;;;;13.70;8.70;;;;;;;3.49;97.50;97194.97;5111775;28;20030;-75
2020/12/13 00:55:55;;;;;;;;;;;;;;;3.46;96.40;97186.59;5110836;28;20024;-74
2020/12/13 00:58:20;;;;;;;11.73;7.40;;;;;;;3.44;96.21;97191.47;5111865;28;19961;-75
2020/12/13 01:00:45;;;;;;;;;;;;;;;3.40;96.09;97196.56;5110975;28;20396;-75
2020/12/13 01:03:11;;;;;;;10.68;6.82;;;;;;;3.38;95.77;97203.34;5111277;28;19911;-75
2020/12/13 01:05:36;;;;;;;;;;;;;;;3.36;95.64;97208.19;5112121;28;20030;-76
2020/12/13 01:08:02;;;;;;;18.85;8.10;;;;;;;3.13;94.68;97180.56;5111515;28;19912;-75
2020/12/13 01:10:28;;;;;;;15.10;8.30;;;;;;;3.27;94.60;97202.50;5111767;28;20019;-73
2020/12/13 01:12:53;;;;;;;15.80;8.30;;;;;;;3.28;94.56;97204.13;5110371;28;20034;-75
2020/12/13 01:15:19;;;;;;;14.73;8.18;;;;;;;3.19;94.26;97201.16;5111359;28;20016;-76
2020/12/13 01:17:46;;;;;;;14.85;8.52;;;;;;;3.21;95.07;97219.78;5111352;28;20476;-74
2020/12/13 01:20:12;;;;;;;15.70;8.93;;;;;;;3.32;95.04;97221.41;5109764;28;20606;-76
2020/12/13 01:22:38;;;;;;;14.45;8.38;;;;;;;3.32;94.77;97215.22;5110721;28;20069;-75
2020/12/13 01:25:05;;;;;;;11.82;7.55;;;;;;;3.32;94.48;97221.41;5109655;28;20464;-76
2020/12/13 01:27:30;;;;;;;13.07;6.47;;;;;;;3.40;94.41;97217.38;5110853;28;20129;-75
2020/12/13 01:29:55;;;;;;;15.70;8.75;;;;;;;3.50;94.84;97229.03;5110969;28;20110;-76
2020/12/13 01:32:21;;;;;;;;;;;;;;;3.51;94.84;97229.84;5111557;28;20028;-75
2020/12/13 01:34:46;;;;;;;13.40;6.93;;;;;;;3.51;94.12;97224.44;5110037;28;19915;-75
2020/12/13 01:37:12;;;;;;;17.30;8.55;;;;;;;3.31;94.61;97219.00;5111282;28;20016;-75
2020/12/13 01:39:37;;;;;;;14.77;8.75;;;;;;;3.35;94.81;97231.72;5110117;28;20031;-75
2020/12/13 01:42:03;;;;;;;14.98;8.52;;;;;;;3.37;94.54;97234.13;5109694;28;20031;-76
2020/12/13 01:44:33;;;;;;;13.45;8.30;;;;;;;3.29;94.95;97240.06;5110984;28;20066;-75
2020/12/13 01:46:59;;;;;;;12.13;8.15;;;;;;;3.16;94.79;97228.66;5111689;28;20024;-76
2020/12/13 01:49:30;;;;;;;16.63;10.48;;;;;;;3.16;94.59;97239.47;5109796;28;20110;-75
2020/12/13 01:54:25;;;;;;;14.55;9.07;;;;;;;3.14;95.53;97244.34;5111121;28;20392;-75
2020/12/13 01:56:56;;;;;;;10.75;7.03;;;;;;;3.15;95.83;97243.28;5111338;28;20491;-75
2020/12/13 01:59:24;;;;;;;16.27;9.45;;;;;;;3.09;95.14;97238.13;5111565;28;20080;-75
2020/12/13 02:01:55;;;;;;;12.93;9.05;;;;;;;3.16;95.19;97234.06;5111809;28;20028;-75
2020/12/13 02:04:22;;;;;;;14.00;9.05;;;;;;;3.25;95.05;97242.50;5111213;28;20027;-75
2020/12/13 02:06:53;;;;;;;13.88;8.90;;;;;;;3.22;94.93;97249.25;5109816;28;20027;-79
2020/12/13 02:09:23;;;;;;;14.73;8.88;;;;;;;3.24;94.96;97233.56;5110823;28;20063;-75
2020/12/13 02:11:50;;;;;;;18.05;8.75;;;;;;;3.31;94.54;97235.22;5110921;28;20028;-74
2020/12/13 02:14:16;;;;;;;12.27;8.32;;;;;;;3.19;95.13;97238.97;5112464;28;20113;-75
2020/12/13 02:16:48;;;;;;;16.33;8.88;;;;;;;3.15;95.39;97245.97;5114202;28;20789;-74
2020/12/13 02:19:14;;;;;;;18.88;10.18;;;;;;;3.17;95.63;97261.91;5114885;27;20538;-75
2020/12/13 02:21:43;;;;;;;18.50;9.98;;;;;;;3.06;95.90;97233.25;5114726;28;20039;-75
2020/12/13 02:24:09;;;;;;;14.57;10.00;;;;;;;3.07;95.76;97245.69;5114867;28;20841;-75
2020/12/13 02:26:39;;;;;;;21.08;9.27;;;;;;;3.05;96.46;97235.13;5114517;28;20107;-75
2020/12/13 02:29:04;;;;;;;14.10;9.50;;;;;;;3.06;96.48;97238.66;5101522;28;20028;-75
2020/12/13 02:31:30;;;;;;;14.30;8.93;;;;;;;3.01;96.73;97228.63;5112330;28;20031;-75
2020/12/13 02:33:55;;;;;;;;;;;;;;;3.08;96.84;97237.31;5108242;28;20020;-75
2020/12/13 02:36:20;;;;;;;14.73;8.25;;;;;;;3.05;96.40;97237.00;5092576;28;19911;-75
2020/12/13 02:38:46;;;;;;;11.25;7.30;;;;;;;3.02;96.51;97241.06;5094105;28;20028;-75
2020/12/13 02:41:11;;;;;;;16.10;9.15;;;;;;;3.03;96.71;97245.41;5093810;28;20017;-75
2020/12/13 02:43:36;;;;;;;;;;;;;;;3.05;96.04;97242.41;5092432;28;20083;-76
2020/12/13 02:46:02;;;;;;;11.38;6.75;;;;;;;3.03;95.93;97240.00;5096776;28;19962;-75
2020/12/13 02:48:27;;;;;;;14.82;7.88;;;;;;;3.04;95.76;97240.78;5114070;28;20106;-75
2020/12/13 02:50:53;;;;;;;;;;;;;;;2.98;96.08;97247.25;5114031;28;20477;-75
2020/12/13 02:53:18;;;;;;;14.68;9.02;;;;;;;2.91;95.69;97234.00;5112125;28;19915;-75
2020/12/13 02:55:43;;;;;;;;;;;;;;;3.03;95.47;97250.81;5112930;28;20107;-74
2020/12/13 02:58:09;;;;;;;13.60;8.18;;;;;;;3.05;95.25;97256.75;5113818;28;19922;-77
2020/12/13 03:00:34;;;;;;;;;;;;;;;3.04;95.52;97262.38;5114188;28;20023;-75
2020/12/13 03:02:59;;;;;;;14.52;8.40;;;;;;;3.02;95.25;97259.97;5113672;28;19917;-75
2020/12/13 03:05:25;;;;;;;;;;;;;;;2.95;94.96;97262.09;5112719;28;20035;-74
2020/12/13 03:07:50;;;;;;;14.80;8.38;;;;;;;2.71;95.35;97228.50;5113477;28;19919;-74
2020/12/13 03:10:15;;;;;;;;;;;;;;;2.91;95.44;97257.50;5113974;28;20027;-75
2020/12/13 03:12:41;;;;;;;13.18;7.80;;;;;;;2.98;95.52;97256.16;5113504;28;19911;-76
2020/12/13 03:15:06;;;;;;;;;;;;;;;3.04;95.31;97268.59;5114018;28;20020;-74
2020/12/13 03:17:31;;;;;;;11.80;7.80;;;;;;;3.04;95.42;97265.91;5113314;28;19911;-74
2020/12/13 03:19:57;;;;;;;16.38;9.32;;;;;;;2.80;95.32;97240.44;5112892;28;20034;-74
2020/12/13 03:22:22;;;;;;;;;;;;;;;2.96;95.38;97265.63;5109302;28;20047;-74
2020/12/13 03:24:47;;;;;;;18.58;9.27;;;;;;;2.85;95.02;97262.03;5090680;28;19916;-74
2020/12/13 03:27:13;;;;;;;17.73;8.57;;;;;;;2.86;95.76;97266.38;5090952;28;20055;-74
2020/12/13 03:29:38;;;;;;;;;;;;;;;2.87;95.58;97259.91;5093293;28;20328;-75
2020/12/13 03:32:04;;;;;;;14.00;7.53;;;;;;;2.75;95.43;97253.91;5091025;28;20074;-75
2020/12/13 03:34:29;;;;;;;;;;;;;;;2.79;95.92;97257.69;5092905;28;20024;-76
2020/12/13 03:36:54;;;;;;;12.23;7.53;;;;;;;2.81;96.10;97249.34;5092288;28;19961;-75
2020/12/13 03:39:20;;;;;;;15.48;8.68;;;;;;;2.89;96.18;97260.44;5091283;28;20023;-75
2020/12/13 03:41:45;;;;;;;18.90;8.65;;;;;;;2.82;95.90;97254.47;5090944;28;20043;-75
2020/12/13 03:44:13;;;;;;;;;;;;;;;2.84;95.59;97268.53;5092765;28;20040;-76
2020/12/13 03:46:39;;;;;;;17.77;8.73;;;;;;;2.92;95.76;97259.91;5092786;28;19912;-75
2020/12/13 03:49:05;;;;;;;16.35;7.97;;;;;;;2.81;96.01;97263.66;5092187;28;20035;-75
2020/12/13 03:51:30;;;;;;;14.45;8.27;;;;;;;2.80;96.10;97262.03;5092316;28;20370;-74
2020/12/13 03:53:56;;;;;;;14.25;7.82;;;;;;;2.79;96.41;97265.00;5090987;28;20042;-74
2020/12/13 03:56:21;;;;;;;;;;;;;;;2.96;96.44;97279.13;5091229;28;20039;-75
2020/12/13 03:58:46;;;;;;;15.82;8.07;;;;;;;2.90;96.41;97270.19;5092529;28;19938;-74
2020/12/13 04:01:12;;;;;;;;;;;;;;;2.90;95.75;97286.38;5091268;28;20063;-75
2020/12/13 04:03:37;;;;;;;;;;;;;;;2.90;95.49;97291.78;5091419;28;19942;-75
2020/12/13 04:06:02;;;;;;;;;;;;;;;2.86;95.38;97287.97;5092630;28;19926;-76
2020/12/13 04:08:27;;;;;;;;;;;;;;;2.82;95.26;97284.16;5092476;28;20304;-74
2020/12/13 04:10:53;;;;;;;;;;;;;;;2.84;95.53;97284.75;5091183;28;19939;-75
2020/12/13 04:13:18;;;;;;;;;;;;;;;2.87;95.53;97278.81;5091340;28;19915;-75
2020/12/13 04:15:43;;;;;;;;;;;;;;;2.91;95.74;97284.50;5092221;28;19915;-75
2020/12/13 04:18:08;;;;;;;;;;;;;;;2.91;96.13;97281.81;5091568;28;19912;-76
2020/12/13 04:20:34;;;;;;;;;;;;;;;2.81;95.64;97292.53;5092606;28;19923;-73
2020/12/13 04:22:59;;;;;;;;;;;;;;;2.79;95.76;97286.59;5100661;28;20010;-74
2020/12/13 04:25:24;;;;;;;;;;;;;;;2.76;96.00;97282.53;5112768;28;19923;-76
2020/12/13 04:27:52;;;;;;;;;;;;;;;2.82;96.38;97291.47;5112744;27;19915;-76
2020/12/13 04:30:17;;;;;;;;;;;;;;;2.85;95.81;97301.75;5113050;28;19951;-74
2020/12/13 04:32:42;;;;;;;;;;;;;;;2.90;95.70;97302.59;5111291;28;19970;-73
2020/12/13 04:35:08;;;;;;;;;;;;;;;2.94;95.85;97306.41;5112856;28;19934;-74
2020/12/13 04:37:33;;;;;;;;;;;;;;;2.90;95.39;97305.28;5111172;28;20370;-74
2020/12/13 04:39:58;;;;;;;;;;;;;;;2.79;95.68;97309.00;5112528;28;20042;-75
2020/12/13 04:42:23;;;;;;;;;;;;;;;2.79;95.59;97321.72;5110907;28;19911;-73
2020/12/13 04:44:49;;;;;;;;;;;;;;;2.82;95.45;97310.38;5112343;28;19961;-75
2020/12/13 04:47:16;;;;;;;;;;;;;;;2.68;95.66;97313.53;5112617;28;20006;-75
2020/12/13 04:49:42;;;;;;;;;;;;;;;2.65;95.80;97314.06;5112121;28;20347;-75
2020/12/13 04:52:08;;;;;;;;;;;;;;;2.66;96.07;97315.66;5110814;28;19912;-75
2020/12/13 04:54:33;;;;;;;;;;;;;;;2.60;96.09;97314.00;5112057;28;20006;-74
2020/12/13 04:56:59;;;;;;;;;;;;;;;2.64;96.40;97322.41;5112253;28;19918;-75
2020/12/13 04:59:26;;;;;;;;;;;;;;;2.66;96.22;97336.47;5111746;28;20387;-75
2020/12/13 05:01:52;;;;;;;;;;;;;;;2.77;96.21;97332.75;5110941;28;19920;-75
2020/12/13 05:04:17;;;;;;;;;;;;;;;2.67;95.35;97341.59;5111966;28;20381;-75
2020/12/13 05:06:43;;;;;;;;;;;;;;;2.58;95.91;97336.94;5112021;28;19919;-75
2020/12/13 05:09:09;;;;;;;;;;;;;;;2.58;95.82;97334.25;5111120;28;19912;-74
2020/12/13 05:11:37;;;;;;;;;;;;;;;2.52;95.74;97330.72;5112948;28;20440;-75
2020/12/13 05:14:03;;;;;;;;;;;;;;;2.52;95.76;97333.41;5113009;28;19918;-75
2020/12/13 05:16:28;;;;;;;;;;;;;;;2.50;96.29;97329.34;5112010;28;19919;-75
2020/12/13 05:18:54;;;;;;;;;;;;;;;2.47;96.33;97332.56;5112899;28;20002;-75
2020/12/13 05:21:20;;;;;;;;;;;;;;;2.45;96.64;97337.38;5112050;28;19958;-75
2020/12/13 05:23:46;;;;;;;;;;;;;;;2.49;96.11;97346.59;5110355;28;19911;-74
2020/12/13 05:26:11;;;;;;;;;;;;;;;2.40;95.65;97342.75;5111929;28;20275;-75
2020/12/13 05:28:37;;;;;;;;;;;;;;;2.37;95.71;97348.66;5111467;28;19916;-79
2020/12/13 05:31:03;;;;;;;;;;;;;;;2.44;95.53;97349.28;5111368;28;19912;-75
2020/12/13 05:33:36;;;;;;;;;;;;;;;2.50;95.36;97350.94;5111502;28;19911;-76
2020/12/13 05:36:04;;;;;;;;;;;;;;;2.61;95.08;97360.72;5111336;28;19912;-75
2020/12/13 05:38:33;;;;;;;;;;;;;;;2.50;95.29;97364.44;5109917;28;20281;-75
2020/12/13 05:40:58;;;;;;;;;;;;;;;2.51;95.78;97379.53;5110309;28;20348;-76
2020/12/13 05:43:27;;;;;;;;;;;;;;;2.51;95.70;97371.44;5111326;28;20014;-77
2020/12/13 05:53:28;;;;;;;;;;;;;;;2.49;95.39;97405.97;5115516;28;19919;-75
2020/12/13 05:55:56;;;;;;;;;;;;;;;2.49;95.70;97411.38;5115471;28;19941;-80
2020/12/13 05:58:23;;;;;;;;;;;;;;;2.58;95.27;97415.22;5115115;28;20376;-75
2020/12/13 06:00:50;;;;;;;;;;;;;;;2.58;96.00;97415.22;5115525;28;19922;-74
2020/12/13 06:03:21;;;;;;;;;;;;;;;2.64;95.79;97408.78;5115241;28;20292;-75
2020/12/13 06:05:49;;;;;;;;;;;;;;;2.64;95.52;97423.09;5114967;28;19916;-78
2020/12/13 06:08:15;;;;;;;;;;;;;;;2.57;95.77;97424.38;5114930;28;20398;-76
2020/12/13 06:10:43;;;;;;;;;;;;;;;2.69;95.87;97428.53;5114981;28;19912;-75
2020/12/13 06:13:15;;;;;;;;;;;;;;;2.81;95.61;97424.84;5115117;28;19960;-74
2020/12/13 06:15:41;;;;;;;;;;;;;;;2.63;95.39;97436.88;5115132;28;20395;-73
2020/12/13 06:18:06;;;;;;;;;;;;;;;2.69;95.71;97446.63;5114103;28;19966;-74
2020/12/13 06:20:32;;;;;;;;;;;;;;;2.72;96.46;97438.03;5114909;28;19915;-73
2020/12/13 06:22:59;;;;;;;;;;;;;;;2.70;96.43;97446.38;5105645;28;20040;-75
2020/12/13 06:25:24;;;;;;;;;;;;;;;2.64;96.88;97454.69;5093382;28;19912;-75
2020/12/13 06:27:50;;;;;;;;;;;;;;;2.66;96.77;97449.84;5094538;28;19916;-74
2020/12/13 06:30:16;;;;;;;;;;;;;;;2.64;96.58;97454.69;5094166;28;19943;-74
2020/12/13 06:32:43;;;;;;;;;;;;;;;2.61;96.73;97447.09;5094038;28;20001;-74
2020/12/13 06:35:08;;;;;;;;;;;;;;;2.65;96.90;97453.63;5093090;28;20377;-74
2020/12/13 06:37:37;;;;;;;;;;;;;;;2.61;96.61;97457.91;5092945;28;19954;-75
2020/12/13 06:40:03;;;;;;;;;;;;;;;2.61;96.73;97452.50;5094437;28;19923;-74
2020/12/13 06:42:31;;;;;;;;;;;;;;;2.67;97.02;97464.97;5094593;28;19916;-76
2020/12/13 06:45:03;;;;;;;;;;;;;;;2.69;96.80;97470.94;5093035;28;19919;-75
2020/12/13 06:47:30;;;;;;;;;;;;;;;2.67;96.69;97465.78;5091900;28;20395;-75
2020/12/13 06:49:55;;;;;;;;;;;;;;;2.72;96.89;97471.22;5091655;28;20364;-75
2020/12/13 06:52:26;;;;;;;;;;;;;;;2.68;96.35;97474.69;5092766;28;19916;-75
2020/12/13 06:54:51;;;;;;;;;;;;;;;2.70;96.35;97472.53;5092600;28;20763;-75
2020/12/13 06:57:17;;;;;;;;;;;;;;;2.69;95.71;97479.03;5092225;28;19916;-75
2020/12/13 06:59:45;;;;;;;;;;;;;;;2.59;95.55;97487.03;5091950;28;19927;-74
2020/12/13 07:02:10;;;;;;;;;;;;;;;2.66;95.60;97485.75;5091426;28;19918;-76
2020/12/13 07:04:38;;;;;;;;;;;;;;;2.64;95.25;97489.78;5092967;28;20371;-75
2020/12/13 07:07:10;;;;;;;;;;;;;;;2.71;95.34;97498.47;5092922;28;20330;-74
2020/12/13 07:09:35;;;;;;;;;;;;;;;2.72;95.96;97500.13;5091729;28;19919;-75
2020/12/13 07:12:02;;;;;;;;;;;;;;;2.76;95.73;97490.41;5091103;28;19912;-75
2020/12/13 07:14:29;;;;;;;;;;;;;;;2.67;95.46;97503.56;5091224;28;19968;-76
2020/12/13 07:17:07;;;;;;;;;;;;;;;2.67;95.75;97510.84;5091551;28;20007;-75
2020/12/13 07:19:34;;;;;;;;;;;;;;;2.77;95.47;97510.97;5092672;28;19920;-75
2020/12/13 07:22:04;;;;;;;;;;;;;;;2.67;95.26;97516.25;5091095;28;19916;-75
2020/12/13 07:24:30;;;;;;;;;;;;;;;2.64;95.50;97528.38;5112773;28;19916;-74
2020/12/13 07:26:55;;;;;;;;;;;;;;;2.77;95.43;97532.56;5112315;28;19922;-74
2020/12/13 07:29:21;;;;;;;;;;;;;;;2.90;95.29;97526.75;5110904;28;19921;-75
2020/12/13 07:31:46;;;;;;;;;;;;;;;2.73;94.32;97534.13;5110963;28;19912;-74
2020/12/13 07:34:12;;;;;;;;;;;;;;;2.75;94.92;97531.19;5111550;28;19911;-74
2020/12/13 07:36:37;;;;;;;;;;;;;;;2.69;94.64;97533.81;5112583;28;19956;-75
2020/12/13 07:39:06;;;;;;;;;;;;;;;2.67;94.97;97537.84;5112673;28;19918;-75
2020/12/13 07:41:32;;;;;;;;;;;;;;;2.76;95.11;97540.94;5112406;28;19930;-74
2020/12/13 07:43:59;;;;;;;;;;;;;;;2.74;94.99;97543.88;5078568;28;973693;-75
2020/12/13 07:46:25;;;;;;;;;;;;;;;2.72;94.81;97551.41;5112075;28;20310;-75
2020/12/13 07:49:00;;;;;;;;;;;;;;;2.72;94.80;97551.41;5113632;28;19912;-74
2020/12/13 07:51:25;;;;;;;;;;;;;;;2.68;95.09;97556.50;5113333;27;20368;-75
2020/12/13 07:53:50;;;;;;;;;;;;;;;2.66;94.74;97560.53;5113113;28;19954;-76
2020/12/13 07:56:26;;;;;;;;;;;;;;;2.63;93.77;97569.16;5102234;28;20003;-75
2020/12/13 07:58:51;;;;;;;;;;;;;;;2.63;92.94;97564.53;5102760;28;20289;-74
2020/12/13 08:01:17;;;;;;;;;;;;;;;2.61;92.99;97573.97;5100110;28;19920;-75
2020/12/13 08:03:43;;;;;;;;;;;;;;;2.51;92.34;97576.56;5100656;28;19946;-75
2020/12/13 08:06:08;;;;;;;;;;;;;;;2.62;92.12;97573.72;5095526;28;19916;-74
2020/12/13 08:08:40;;;;;;;;;;;;;;;2.70;92.42;97575.13;5090966;28;20262;-75
2020/12/13 08:11:10;;;;;;;;;;;;;;;2.68;92.31;97582.69;5091586;28;19912;-75
2020/12/13 08:13:35;;;;;;;;;;;;;;;2.84;92.31;97587.19;5092749;28;19912;-74
2020/12/13 08:16:01;;;;;;;;;;;;;;;2.84;91.88;97592.56;5091292;28;19919;-75
2020/12/13 08:18:27;;;;;;;;;;;;;;;2.74;91.81;97592.47;5093504;28;20023;-75
2020/12/13 08:20:52;;;;;;;;;;;;;;;2.77;91.59;97593.84;5101070;28;19923;-73
2020/12/13 08:23:18;;;;;;;;;;;;;;;2.75;92.03;97591.41;5104547;28;19916;-75
2020/12/13 08:25:44;;;;;;;;;;;;;;;2.82;91.79;97602.00;5100979;28;19961;-77
2020/12/13 08:28:12;;;;;;;;;;;;;;;2.87;90.86;97586.66;5102962;28;19915;-77
2020/12/13 08:30:37;;;;;;;;;;;;;;;2.80;91.19;97602.25;5100095;28;20007;-76
2020/12/13 08:33:08;;;;;;;;;;;;;;;2.78;91.21;97596.31;5101224;28;20060;-75
2020/12/13 08:35:33;;;;;;;;;;;;;;;2.75;91.66;97606.78;5101628;28;20377;-75
2020/12/13 08:38:00;;;;;;;;;;;;;;;2.73;91.85;97615.13;5097311;28;20009;-75
2020/12/13 08:40:34;;;;;;;;;;;;;;;2.70;92.05;97607.53;5093083;28;19968;-76
2020/12/13 08:42:59;;;;;;;;;;;;;;;2.69;91.62;97616.72;5090062;28;19966;-75
2020/12/13 08:45:25;;;;;;;;;;;;;;;2.76;91.59;97609.22;5100951;28;20367;-77
2020/12/13 08:47:50;;;;;;;;;;;;;;;2.67;91.41;97608.03;5099985;28;19915;-77
2020/12/13 08:50:19;;;;;;;;;;;;;;;2.79;91.79;97624.13;5101381;28;19908;-77
2020/12/13 08:52:44;;;;;;;;;;;;;;;2.72;91.18;97634.28;5097068;28;19924;-75
2020/12/13 08:55:09;;;;;;;;;;;;;;;2.91;91.29;97646.41;5091731;28;20392;-74
2020/12/13 08:57:45;;;;;;;;;;;;;;;3.02;91.79;97648.94;5106559;28;19918;-77
2020/12/13 09:00:14;;;;;;;;;;;;;;;3.27;92.24;97645.66;5108924;28;20258;-79
2020/12/13 09:02:53;;;;;;;;;;;;;;;3.17;91.77;97649.09;5090518;28;20315;-78
2020/12/13 09:05:24;;;;;;;;;;;;;;;3.08;92.06;97645.22;5095964;28;19964;-77
2020/12/13 09:07:49;;;;;;;;;;;;;;;3.01;92.17;97650.00;5102267;28;19965;-75
2020/12/13 09:10:15;;;;;;;;;;;;;;;3.00;92.44;97656.50;5098801;28;19924;-76
2020/12/13 09:12:40;;;;;;;;;;;;;;;2.95;92.12;97656.41;5097229;28;20007;-76
2020/12/13 09:15:12;;;;;;;;;;;;;;;3.03;91.68;97655.97;5098449;28;19920;-76
2020/12/13 09:17:38;;;;;;;;;;;;;;;2.93;91.55;97655.03;5091501;28;20367;-75
2020/12/13 09:20:04;;;;;;;;;;;;;;;2.96;92.04;97655.34;5095339;28;19916;-77
2020/12/13 09:22:30;;;;;;;;;;;;;;;3.03;91.22;97647.06;5095331;28;20011;-75
2020/12/13 09:24:56;;;;;;;;;;;;;;;3.13;91.57;97664.16;5100736;28;19953;-77
2020/12/13 09:27:23;;;;;;;;;;;;;;;3.27;92.31;97656.47;5099997;28;19916;-74
2020/12/13 09:29:49;;;;;;;;;;;;;;;3.28;91.80;97662.69;5107958;28;19920;-76
2020/12/13 09:32:15;;;;;;;;;;;;;;;3.39;91.75;97667.94;5105023;28;19912;-82
2020/12/13 09:34:41;;;;;;;;;;;;;;;3.32;91.73;97680.03;5091230;28;19912;-76
2020/12/13 09:37:10;;;;;;;;;;;;;;;3.33;91.69;97676.25;5090187;28;20288;-75
2020/12/13 09:39:35;;;;;;;;;;;;;;;3.30;91.00;97687.56;5090547;28;19966;-76
2020/12/13 09:42:01;;;;;;;;;;;;;;;3.38;92.44;97679.00;5096365;28;19967;-76
2020/12/13 09:44:26;;;;;;;;;;;;;;;3.36;91.95;97673.84;5098472;28;19919;-75
2020/12/13 09:46:55;;;;;;;;;;;;;;;3.31;91.94;97664.88;5101161;28;20285;-76
2020/12/13 09:49:21;;;;;;;;;;;;;;;3.24;91.29;97668.63;5097943;28;19904;-76
2020/12/13 09:51:47;;;;;;;;;;;;;;;3.09;91.77;97668.47;5099454;28;19919;-80
2020/12/13 09:54:12;;;;;;;;;;;;;;;3.26;92.11;97670.25;5098904;28;19964;-76
2020/12/13 09:56:37;;;;;;;;;;;;;;;3.37;91.93;97667.38;5100708;28;19939;-75
2020/12/13 09:59:03;;;;;;;;;;;;;;;3.45;91.46;97671.50;5097828;28;19912;-74
2020/12/13 10:01:28;;;;;;;;;;;;;;;3.47;91.19;97674.78;5110235;28;20377;-74
2020/12/13 10:03:55;;;;;;;;;;;;;;;3.53;91.14;97684.56;5108580;28;19912;-74
2020/12/13 10:07:02;;;;;;;;;;;;;;;3.58;91.65;97690.00;5090200;28;19951;-75
2020/12/13 10:09:12;;;;;;;;;;;;;;;3.50;90.67;97682.38;5092294;28;21267;-74
2020/12/13 10:11:39;;;;;;;;;;;;;;;3.48;90.30;97674.50;5095273;28;20042;-76
2020/12/13 10:14:05;;;;;;;;;;;;;;;3.66;90.10;97670.63;5098656;28;19912;-75
2020/12/13 10:16:31;;;;;;;;;;;;;;;3.65;90.42;97674.38;5110544;28;19916;-74
2020/12/13 10:18:56;;;;;;;;;;;;;;;3.57;90.20;97678.38;5111515;28;19912;-74
2020/12/13 10:21:29;;;;;;;;;;;;;;;3.76;90.63;97676.09;5110366;28;20007;-75
2020/12/13 10:23:55;;;;;;;;;;;;;;;3.73;90.35;97671.19;5110608;28;19907;-77
2020/12/13 10:26:24;;;;;;;;;;;;;;;4.23;89.46;97674.25;5109351;28;19985;-76
2020/12/13 10:28:49;;;;;;;;;;;;;;;4.81;89.72;97677.81;5090601;28;19916;-76
2020/12/13 10:31:15;;;;;;;;;;;;;;;4.30;88.04;97677.56;5090340;28;19920;-76
2020/12/13 10:33:40;;;;;;;;;;;;;;;4.24;88.49;97673.19;5108816;28;19916;-74
2020/12/13 10:36:07;;;;;;;;;;;;;;;4.16;88.09;97679.09;5114229;28;19916;-76
2020/12/13 10:38:32;;;;;;;;;;;;;;;4.54;87.54;97682.56;5114648;28;19917;-76
2020/12/13 10:40:57;;;;;;;;;;;;;;;4.55;87.23;97687.69;5109764;28;19919;-74
2020/12/13 10:43:23;;;;;;;;;;;;;;;4.24;86.85;97688.59;5103049;28;20265;-75
2020/12/13 10:45:48;;;;;;;;;;;;;;;4.16;87.65;97683.69;5102387;28;19927;-76
2020/12/13 10:48:14;;;;;;;;;;;;;;;4.10;87.33;97682.81;5105217;28;19900;-75
2020/12/13 10:50:39;;;;;;;;;;;;;;;4.04;87.50;97686.56;5108173;28;19915;-76
2020/12/13 10:53:04;;;;;;;;;;;;;;;4.01;88.21;97676.28;5101738;28;19916;-74
2020/12/13 10:55:30;;;;;;;;;;;;;;;4.03;88.10;97682.25;5094718;28;20368;-75
2020/12/13 10:57:55;;;;;;;;;;;;;;;3.94;88.50;97683.00;5098604;28;19988;-76
2020/12/13 11:00:23;;;;;;;;;;;;;;;4.02;88.75;97674.38;5103738;28;20032;-75
2020/12/13 11:02:49;;;;;;;;;;;;;;;4.03;87.46;97668.72;5102711;28;19912;-76
2020/12/13 11:05:15;;;;;;;;;;;;;;;4.21;87.30;97673.72;5103216;28;19911;-75
2020/12/13 11:07:40;;;;;;;;;;;;;;;4.08;87.79;97676.88;5103377;28;20004;-74
2020/12/13 11:10:05;;;;;;;;;;;;;;;4.21;87.68;97679.13;5109720;28;19922;-75
2020/12/13 11:12:30;;;;;;;;;;;;;;;4.40;87.58;97692.22;5101991;28;19912;-74
2020/12/13 11:14:56;;;;;;;;;;;;;;;4.38;86.75;97689.78;5101978;28;19919;-75
2020/12/13 11:17:21;;;;;;;;;;;;;;;4.28;87.38;97685.13;5103577;28;19912;-75
2020/12/13 11:19:49;;;;;;;;;;;;;;;4.31;85.97;97687.31;5102960;28;19947;-75
2020/12/13 11:22:14;;;;;;;;;;;;;;;4.35;85.01;97684.09;5102973;28;19926;-75
2020/12/13 11:24:39;;;;;;;;;;;;;;;4.24;84.29;97677.78;5105113;28;19915;-76
2020/12/13 11:27:07;;;;;;;;;;;;;;;4.44;84.39;97672.50;5104553;28;20357;-75
2020/12/13 11:29:32;;;;;;;;;;;;;;;4.21;83.23;97671.00;5105788;28;19912;-76
2020/12/13 11:31:58;;;;;;;;;;;;;;;4.21;83.53;97667.47;5098000;28;19923;-78
2020/12/13 11:34:23;;;;;;;;;;;;;;;4.23;84.00;97666.13;5099056;28;19919;-76
2020/12/13 11:36:48;;;;;;;;;;;;;;;4.27;85.22;97672.66;5107321;28;19915;-76
2020/12/13 11:39:13;;;;;;;;;;;;;;;4.19;82.95;97670.47;5117878;28;19912;-77
2020/12/13 11:41:39;;;;;;;;;;;;;;;4.13;82.18;97671.50;5118138;28;19954;-77
2020/12/13 11:44:04;;;;;;;;;;;;;;;4.19;82.74;97670.47;5116902;28;19919;-75
2020/12/13 11:46:29;;;;;;;;;;;;;;;4.36;84.03;97674.84;5112043;28;19922;-74
2020/12/13 11:48:54;;;;;;;;;;;;;;;4.59;83.93;97669.03;5113969;28;19912;-74
2020/12/13 11:51:20;;;;;;;;;;;;;;;4.65;82.51;97665.28;5112932;28;20011;-75
2020/12/13 11:53:45;;;;;;;;;;;;;;;4.52;82.16;97666.56;5112266;28;19911;-74
2020/12/13 11:56:10;;;;;;;;;;;;;;;4.73;81.98;97672.91;5092436;28;20284;-77
2020/12/13 11:58:36;;;;;;;;;;;;;;;4.82;82.01;97668.59;5092369;28;19912;-73
2020/12/13 12:01:01;;;;;;;;;;;;;;;4.70;81.48;97668.00;5092659;28;19918;-76
2020/12/13 12:03:26;;;;;;;;;;;;;;;4.82;80.52;97668.59;5110484;28;19918;-76
2020/12/13 12:05:52;;;;;;;;;;;;;;;5.00;81.26;97672.72;5112616;28;19984;-74
2020/12/13 12:08:17;;;;;;;;;;;;;;;4.90;80.67;97675.38;5108943;28;19958;-75
2020/12/13 12:10:42;;;;;;;;;;;;;;;4.84;80.90;97682.69;5099087;28;19924;-74
2020/12/13 12:13:08;;;;;;;;;;;;;;;4.80;80.68;97685.09;5100683;28;19927;-76
2020/12/13 12:15:33;;;;;;;;;;;;;;;4.89;80.68;97681.91;5101654;28;19916;-75
2020/12/13 12:17:58;;;;;;;;;;;;;;;4.82;80.85;97679.44;5104553;28;19923;-74
2020/12/13 12:20:27;;;;;;;;;;;;;;;4.82;81.28;97674.03;5097520;28;20010;-75
2020/12/13 12:22:53;;;;;;;;;;;;;;;4.74;80.87;97669.09;5100076;28;20033;-74
2020/12/13 12:25:18;;;;;;;;;;;;;;;4.70;81.52;97668.00;5098814;28;19916;-75
2020/12/13 12:27:43;;;;;;;;;;;;;;;4.77;81.46;97660.44;5090867;28;19918;-74
2020/12/13 12:30:09;;;;;;;;;;;;;;;4.86;80.72;97666.97;5091344;28;20007;-74
2020/12/13 12:32:34;;;;;;;;;;;;;;;4.96;80.60;97669.72;5091274;28;19919;-76
2020/12/13 12:34:59;;;;;;;;;;;;;;;5.00;79.85;97672.72;5091553;28;19928;-74
2020/12/13 12:37:26;;;;;;;;;;;;;;;4.94;80.07;97676.50;5090287;28;19919;-75